Sumy, Ukraine
Current Conditions -  °F | °C
As of 8:00 AM on Saturday 20 Dec 2014 (Local Time) from UUOK Reporting Station
Light Rain Light Rain  
Wind Chill: 28°   Ceiling: 400
Heat Index: 36°   Visibility: 1.8mi
Dew Point: 36°   Wind: 11mph
Humidity: 100%   Direction: 210°SSW
Pressure: 29.68"   Gusts: NA
Location:  50.92°N, 34.78°E
Report Text: UUOK 200500Z 21005MPS 3000 -RA BR OVC004 02/02 Q1005 NOSIG RMK30290150
Loading
Personal Weather Stations






























Interactive Weather Map New forecast layout! Learn more

10-Day Weather Forecast

Advertisements
Track Severe Weather on mobile